Time;durP1;ratioP1;P1;durP2;ratioP2;P2;SDS_P1;SDS_P2;PMS_P1;PMS_P2;Temp;Humidity;BMP_temperature;BMP_pressure;BME280_temperature;BME280_humidity;BME280_pressure;Samples;Min_cycle;Max_cycle;Signal;HPM_P1;HPM_P2
2022/08/10 00:00:21;;;;;;;5.18;4.43;;;;;;;24.61;44.23;94798.19;4175344;28;20056;-69
2022/08/10 00:02:23;;;;;;;9.43;5.32;;;;;;;24.59;44.32;94802.97;4163049;28;20056;-70
2022/08/10 00:04:25;;;;;;;8.00;4.70;;;;;;;24.58;44.22;94800.53;4178264;28;20124;-70
2022/08/10 00:06:27;;;;;;;7.00;4.78;;;;;;;24.63;44.42;94797.91;4178197;28;20118;-69
2022/08/10 00:08:29;;;;;;;6.00;5.25;;;;;;;24.66;44.30;94800.91;4177374;28;20690;-70
2022/08/10 00:10:32;;;;;;;8.45;4.65;;;;;;;24.66;44.37;94802.78;4177421;28;20060;-70
2022/08/10 00:12:33;;;;;;;5.80;4.68;;;;;;;24.68;44.40;94795.31;4178426;28;20053;-70
2022/08/10 00:14:55;;;;;;;5.45;4.90;;;;;;;24.67;44.18;94799.03;4177195;28;20464;-70
2022/08/10 00:16:57;;;;;;;5.32;4.68;;;;;;;24.61;44.57;94790.13;4165271;28;20129;-69
2022/08/10 00:18:58;;;;;;;8.23;4.68;;;;;;;24.61;44.21;94800.03;4171480;28;20045;-70
2022/08/10 00:21:00;;;;;;;7.38;4.88;;;;;;;24.60;44.63;94798.41;4161770;28;20108;-70
2022/08/10 00:23:02;;;;;;;8.00;5.30;;;;;;;24.58;44.80;94795.16;4174406;28;20111;-69
2022/08/10 00:25:05;;;;;;;6.20;4.55;;;;;;;24.58;44.95;94790.63;4163378;28;20057;-72
2022/08/10 00:27:06;;;;;;;6.47;4.90;;;;;;;24.61;44.66;94789.31;4161755;28;20057;-69
2022/08/10 00:29:28;;;;;;;6.90;4.85;;;;;;;24.57;45.13;94796.22;4175012;28;20084;-69
2022/08/10 00:31:31;;;;;;;6.07;4.80;;;;;;;24.57;45.00;94793.56;4161471;28;20060;-68
2022/08/10 00:33:52;;;;;;;5.97;5.25;;;;;;;24.55;45.00;94795.66;4172369;28;20084;-68
2022/08/10 00:35:54;;;;;;;6.55;4.97;;;;;;;24.53;45.25;94787.88;4173521;28;20048;-69
2022/08/10 00:37:56;;;;;;;5.93;5.07;;;;;;;24.52;45.02;94789.75;4160929;28;20065;-69
2022/08/10 00:39:58;;;;;;;9.77;5.10;;;;;;;24.50;45.05;94794.53;4160956;28;20049;-73
2022/08/10 00:42:00;;;;;;;8.25;5.55;;;;;;;24.48;45.13;94790.44;4175086;28;20049;-69
2022/08/10 00:44:08;;;;;;;8.43;5.45;;;;;;;24.47;45.04;94800.31;4177795;28;20514;-69
2022/08/10 00:46:10;;;;;;;5.38;4.82;;;;;;;24.38;45.47;94799.09;4177785;28;20048;-70
2022/08/10 00:48:12;;;;;;;7.00;5.10;;;;;;;24.33;45.72;94802.53;4159900;28;20149;-70
2022/08/10 00:50:16;;;;;;;5.32;4.82;;;;;;;24.30;45.63;94804.84;4177175;28;20443;-69
2022/08/10 00:52:19;;;;;;;9.82;5.25;;;;;;;24.26;46.11;94806.41;4176634;28;20057;-70
2022/08/10 00:54:21;;;;;;;10.75;5.07;;;;;;;24.23;46.19;94801.53;4159517;28;20447;-69
2022/08/10 00:56:26;;;;;;;6.63;4.80;;;;;;;24.19;46.26;94800.38;4176526;28;20135;-69
2022/08/10 00:58:48;;;;;;;12.93;5.10;;;;;;;24.23;46.08;94798.84;4177397;28;20553;-69
2022/08/10 01:00:49;;;;;;;6.38;5.07;;;;;;;24.24;46.20;94808.50;4173079;28;20054;-69
2022/08/10 01:02:52;;;;;;;6.63;5.28;;;;;;;24.18;46.43;94806.78;4168310;28;20064;-68
2022/08/10 01:04:54;;;;;;;8.07;5.18;;;;;;;23.92;46.67;94806.34;4175303;28;20041;-68
2022/08/10 01:07:25;;;;;;;7.63;5.03;;;;;;;23.86;47.13;94808.13;4175628;28;20052;-69
2022/08/10 01:09:42;;;;;;;7.43;5.22;;;;;;;23.89;46.88;94806.81;4153343;28;20053;-69
2022/08/10 01:12:09;;;;;;;5.85;5.20;;;;;;;23.92;46.92;94801.00;4178835;28;20617;-69
2022/08/10 01:14:38;;;;;;;5.60;4.82;;;;;;;23.95;46.92;94808.53;4174636;28;20385;-72
2022/08/10 01:16:52;;;;;;;6.28;5.35;;;;;;;23.89;46.74;94807.63;4177218;28;20049;-69
2022/08/10 01:19:08;;;;;;;7.38;4.80;;;;;;;23.85;46.70;94811.03;4159766;28;20126;-69
2022/08/10 01:21:37;;;;;;;7.13;5.32;;;;;;;23.86;46.80;94809.97;4176325;28;20041;-71
2022/08/10 01:23:57;;;;;;;6.93;4.50;;;;;;;23.87;46.94;94808.91;4147524;28;20060;-71
2022/08/10 01:26:36;;;;;;;5.97;4.93;;;;;;;23.84;46.92;94812.88;4166343;28;20202;-69
2022/08/10 01:29:19;;;;;;;6.00;4.97;;;;;;;23.80;47.10;94803.72;4149594;28;20056;-69
2022/08/10 01:31:48;;;;;;;6.53;4.93;;;;;;;23.77;46.95;94806.03;4159171;28;20263;-70
2022/08/10 01:33:53;;;;;;;6.15;4.97;;;;;;;23.70;47.16;94801.66;4164248;28;20055;-72
2022/08/10 01:36:17;;;;;;;9.68;5.22;;;;;;;23.70;47.13;94803.47;4162479;28;20053;-70
2022/08/10 01:38:35;;;;;;;7.07;4.72;;;;;;;23.67;47.39;94804.78;4170497;28;20582;-70
2022/08/10 01:40:51;;;;;;;5.45;4.85;;;;;;;23.63;47.38;94795.59;4164134;28;20044;-73
2022/08/10 01:42:55;;;;;;;7.30;4.90;;;;;;;23.68;47.41;94798.41;4157620;28;20045;-70
2022/08/10 01:45:10;;;;;;;6.03;4.53;;;;;;;23.63;47.31;94800.94;4169081;28;20127;-69
2022/08/10 01:49:37;;;;;;;8.98;4.75;;;;;;;23.66;47.25;94800.50;4151325;28;20199;-69
2022/08/10 01:51:48;;;;;;;5.25;4.75;;;;;;;23.69;47.21;94797.34;4176528;28;20055;-70
2022/08/10 01:53:55;;;;;;;7.53;5.00;;;;;;;23.74;47.26;94806.50;4174260;28;20621;-69
2022/08/10 01:55:58;;;;;;;7.25;4.47;;;;;;;23.78;47.05;94791.63;4145387;28;20144;-69
2022/08/10 01:58:03;;;;;;;8.10;5.10;;;;;;;23.79;47.70;94803.94;4141534;28;20509;-70
2022/08/10 02:00:06;;;;;;;7.78;5.45;;;;;;;23.74;47.70;94793.94;4176525;28;20048;-68
2022/08/10 02:02:10;;;;;;;8.17;4.97;;;;;;;23.41;48.41;94783.94;4172334;28;20304;-69
2022/08/10 02:04:13;;;;;;;6.20;4.80;;;;;;;22.86;49.69;94783.28;4148139;28;20041;-72
2022/08/10 02:06:15;;;;;;;6.15;4.53;;;;;;;22.83;49.89;94780.31;4158888;28;20129;-71
2022/08/10 02:08:18;;;;;;;6.35;5.28;;;;;;;22.91;49.60;94782.63;4157657;28;20090;-71
2022/08/10 02:10:21;;;;;;;7.00;4.75;;;;;;;23.04;49.62;94786.94;4157701;28;20045;-70
2022/08/10 02:12:27;;;;;;;5.93;5.15;;;;;;;23.14;48.95;94787.13;4152193;28;20054;-69
2022/08/10 02:14:32;;;;;;;6.53;5.18;;;;;;;23.22;48.80;94789.44;4170500;28;20316;-71
2022/08/10 02:16:36;;;;;;;6.75;5.38;;;;;;;23.27;48.52;94784.22;4145189;28;20138;-69
2022/08/10 02:18:39;;;;;;;5.85;5.22;;;;;;;23.26;48.19;94777.22;4163422;28;20444;-69
2022/08/10 02:20:48;;;;;;;5.75;4.95;;;;;;;23.30;48.37;94778.38;4169481;28;20076;-70
2022/08/10 02:22:52;;;;;;;6.25;4.63;;;;;;;23.30;48.31;94781.06;4160320;28;20057;-71
2022/08/10 02:24:55;;;;;;;9.85;5.07;;;;;;;23.30;48.68;94781.06;4142124;28;20041;-69
2022/08/10 02:26:57;;;;;;;8.68;5.80;;;;;;;23.26;48.37;94787.94;4169018;28;20074;-69
2022/08/10 02:29:01;;;;;;;5.55;4.97;;;;;;;23.28;48.42;94785.84;4158607;28;20053;-72
2022/08/10 02:31:07;;;;;;;7.78;4.93;;;;;;;23.33;48.37;94787.78;4161054;28;20544;-73
2022/08/10 02:33:14;;;;;;;12.43;5.28;;;;;;;22.93;49.33;94790.38;4160521;28;20131;-71
2022/08/10 02:35:19;;;;;;;7.15;5.28;;;;;;;22.71;49.78;94793.63;4153678;28;20460;-70
2022/08/10 02:37:25;;;;;;;6.65;5.18;;;;;;;22.69;49.84;94793.91;4155453;28;20120;-69
2022/08/10 02:39:27;;;;;;;;;;;;;;;22.72;50.01;94795.28;4152764;28;20428;-69
2022/08/10 02:41:47;;;;;;;7.30;5.03;;;;;;;22.74;49.68;94797.72;4159777;28;19943;-70
2022/08/10 02:44:15;;;;;;;6.50;5.47;;;;;;;22.80;49.75;94796.78;4173173;28;20083;-72
2022/08/10 02:46:48;;;;;;;7.45;5.43;;;;;;;22.80;49.98;94794.09;4176057;28;20061;-70
2022/08/10 02:48:59;;;;;;;7.78;5.50;;;;;;;22.77;49.78;94798.06;4158557;28;20246;-71
2022/08/10 02:51:05;;;;;;;5.93;5.32;;;;;;;22.73;49.78;94796.88;4163125;28;20542;-69
2022/08/10 02:53:22;;;;;;;10.68;5.30;;;;;;;22.63;50.18;94797.50;4157021;28;20057;-69
2022/08/10 02:55:48;;;;;;;8.13;5.53;;;;;;;22.65;50.08;94799.91;4159492;28;20045;-70
2022/08/10 02:57:54;;;;;;;12.32;5.25;;;;;;;22.68;50.46;94805.59;4157955;28;20115;-70
2022/08/10 03:00:15;;;;;;;9.40;5.72;;;;;;;22.73;50.60;94799.56;4159987;28;20499;-70
2022/08/10 03:02:31;;;;;;;5.82;5.20;;;;;;;22.79;50.71;94801.31;4157200;28;20088;-69
2022/08/10 03:04:40;;;;;;;6.88;5.68;;;;;;;22.83;50.73;94793.66;4175015;28;20076;-68
2022/08/10 03:07:05;;;;;;;11.52;6.68;;;;;;;22.88;50.53;94799.09;4159320;28;20079;-68
2022/08/10 03:09:09;;;;;;;10.20;6.05;;;;;;;22.89;50.34;94793.53;4157551;28;20083;-67
2022/08/10 03:11:17;;;;;;;8.48;5.72;;;;;;;22.89;50.99;94796.19;4156784;28;20053;-68
2022/08/10 03:13:39;;;;;;;8.57;5.97;;;;;;;22.93;50.90;94798.41;4165978;28;20448;-69
2022/08/10 03:15:42;;;;;;;6.40;5.65;;;;;;;22.96;51.13;94797.94;4174811;28;20045;-70
2022/08/10 03:17:45;;;;;;;9.93;6.00;;;;;;;22.98;50.81;94806.53;4157510;28;20517;-69
2022/08/10 03:20:00;;;;;;;7.50;5.75;;;;;;;23.03;51.20;94807.47;4164166;28;20044;-71
2022/08/10 03:22:23;;;;;;;8.52;6.10;;;;;;;23.04;51.15;94806.44;4159904;28;20056;-70
2022/08/10 03:24:27;;;;;;;7.90;6.15;;;;;;;23.04;50.61;94798.44;4174336;28;20399;-69
2022/08/10 03:26:34;;;;;;;7.90;5.70;;;;;;;23.04;50.55;94805.63;4158161;28;20049;-70
2022/08/10 03:28:37;;;;;;;9.10;5.73;;;;;;;23.06;50.70;94809.69;4157569;28;20480;-69
2022/08/10 03:30:39;;;;;;;9.02;5.55;;;;;;;23.07;50.71;94811.31;4175020;28;20057;-69
2022/08/10 03:32:42;;;;;;;7.85;5.78;;;;;;;23.08;50.24;94812.09;4161955;28;20053;-69
2022/08/10 03:34:44;;;;;;;7.63;6.22;;;;;;;23.07;50.78;94810.50;4141218;28;20049;-68
2022/08/10 03:36:46;;;;;;;6.97;5.90;;;;;;;23.04;50.61;94810.97;4174457;28;20053;-69
2022/08/10 03:38:50;;;;;;;9.02;6.07;;;;;;;22.94;51.22;94808.03;4160173;28;20060;-68
2022/08/10 03:40:54;;;;;;;10.80;6.13;;;;;;;22.88;50.98;94817.78;4173155;28;20057;-69
2022/08/10 03:42:57;;;;;;;12.38;6.25;;;;;;;22.86;51.29;94810.00;4152479;28;20046;-69
2022/08/10 03:45:01;;;;;;;7.70;5.53;;;;;;;22.93;51.29;94817.09;4143769;28;20148;-68
2022/08/10 03:47:04;;;;;;;9.45;5.65;;;;;;;22.91;50.91;94817.34;4148538;28;20111;-70
2022/08/10 03:49:17;;;;;;;;;;;;;;;22.93;50.95;94817.09;4149405;28;20115;-68
2022/08/10 03:51:19;;;;;;;5.75;5.15;;;;;;;22.89;50.86;94820.25;4153394;28;20031;-68
2022/08/10 03:53:21;;;;;;;8.60;5.70;;;;;;;22.91;50.91;94822.69;4158931;28;20485;-68
2022/08/10 03:55:43;;;;;;;8.32;6.00;;;;;;;22.95;50.49;94823.00;4177426;28;20049;-70
2022/08/10 03:58:05;;;;;;;7.35;5.78;;;;;;;22.97;50.69;94827.06;4161010;28;20107;-70
2022/08/10 04:00:08;;;;;;;7.25;6.10;;;;;;;22.93;50.50;94817.94;4155951;28;20109;-68
2022/08/10 04:02:13;;;;;;;9.27;6.60;;;;;;;23.01;50.77;94827.47;4172846;28;20049;-70
2022/08/10 04:04:35;;;;;;;8.10;5.63;;;;;;;23.09;50.42;94827.13;4161601;28;20053;-69
2022/08/10 04:06:38;;;;;;;12.33;5.77;;;;;;;23.10;50.28;94832.22;4160066;28;20115;-70
2022/08/10 04:08:41;;;;;;;10.75;5.88;;;;;;;23.11;50.10;94827.69;4143645;28;20050;-68
2022/08/10 04:10:43;;;;;;;;;;;;;;;23.15;50.12;94836.06;4166301;28;20103;-69
2022/08/10 04:12:45;;;;;;;8.18;5.88;;;;;;;23.20;49.82;94836.97;4166030;28;20012;-68
2022/08/10 04:14:47;;;;;;;6.38;5.45;;;;;;;23.24;49.68;94840.81;4163285;28;20049;-69
2022/08/10 04:16:53;;;;;;;9.07;6.35;;;;;;;23.28;49.68;94836.63;4161396;28;20718;-69
2022/08/10 04:18:55;;;;;;;6.32;5.25;;;;;;;23.36;49.34;94837.28;4171151;28;20044;-69
2022/08/10 04:21:08;;;;;;;12.10;6.22;;;;;;;;;;4177103;28;20053;-70
2022/08/10 04:23:19;;;;;;;12.00;5.93;;;;;;;23.37;49.78;94842.41;4162074;28;20053;-69
2022/08/10 04:25:22;;;;;;;11.38;5.88;;;;;;;23.36;50.26;94835.44;4151597;28;20107;-69
2022/08/10 04:27:24;;;;;;;12.13;6.18;;;;;;;23.29;50.23;94838.22;4177069;28;20048;-69
2022/08/10 04:29:26;;;;;;;7.82;6.22;;;;;;;23.28;50.41;94847.31;4160185;28;20057;-67
2022/08/10 04:31:30;;;;;;;7.47;6.10;;;;;;;23.25;50.39;94838.94;4150279;28;20354;-68
2022/08/10 04:33:34;;;;;;;10.98;6.07;;;;;;;23.22;50.80;94842.91;4162796;28;20065;-69
2022/08/10 04:35:36;;;;;;;9.18;5.90;;;;;;;23.24;50.81;94840.00;4156937;28;20139;-70
2022/08/10 04:37:38;;;;;;;7.32;5.80;;;;;;;23.23;50.64;94843.69;4158547;28;20049;-71
2022/08/10 04:39:47;;;;;;;10.98;5.47;;;;;;;23.27;50.70;94840.34;4158983;28;20053;-69
2022/08/10 04:41:49;;;;;;;7.03;5.93;;;;;;;23.15;51.71;94842.22;4158883;28;20056;-68
2022/08/10 04:43:51;;;;;;;10.80;5.82;;;;;;;23.22;51.50;94837.56;4176624;28;20053;-70
2022/08/10 04:45:53;;;;;;;8.23;6.55;;;;;;;23.08;51.68;94841.50;4159413;28;20431;-70
2022/08/10 04:47:56;;;;;;;6.78;6.10;;;;;;;23.08;51.81;94846.84;4175591;28;20107;-69
2022/08/10 04:50:04;;;;;;;8.45;5.95;;;;;;;23.09;52.44;94840.47;4176211;28;20468;-70
2022/08/10 04:52:06;;;;;;;7.75;6.35;;;;;;;23.22;52.38;94836.75;4175509;28;20666;-70
2022/08/10 04:54:08;;;;;;;9.70;6.32;;;;;;;23.20;52.73;94839.66;4176295;28;20473;-70
2022/08/10 04:56:15;;;;;;;14.90;7.03;;;;;;;23.05;53.33;94842.78;4176282;28;20107;-70
2022/08/10 04:58:17;;;;;;;9.85;7.15;;;;;;;22.78;54.08;94850.44;4177290;28;20053;-68
2022/08/10 05:00:19;;;;;;;12.23;7.35;;;;;;;22.60;55.04;94839.84;4176154;28;20057;-69
2022/08/10 05:02:21;;;;;;;9.20;6.50;;;;;;;22.33;55.67;94848.28;4164928;28;20277;-71
2022/08/10 05:04:32;;;;;;;9.05;6.72;;;;;;;22.51;55.33;94843.91;4172483;28;20056;-70
2022/08/10 05:06:39;;;;;;;9.98;6.85;;;;;;;22.06;57.25;94850.47;4176589;28;20044;-70
2022/08/10 05:08:41;;;;;;;10.23;7.40;;;;;;;21.89;57.85;94847.63;4176767;28;20049;-70
2022/08/10 05:10:43;;;;;;;9.68;7.93;;;;;;;21.71;58.90;94847.69;4175463;28;20057;-68
2022/08/10 05:12:45;;;;;;;12.23;7.50;;;;;;;21.98;58.60;94856.13;4175188;28;20049;-69
2022/08/10 05:14:48;;;;;;;10.25;7.78;;;;;;;21.98;58.55;94864.94;4176861;28;20057;-69
2022/08/10 05:16:50;;;;;;;9.60;7.53;;;;;;;21.75;59.27;94849.66;4176713;28;20416;-70
2022/08/10 05:18:51;;;;;;;9.88;7.50;;;;;;;21.78;59.79;94854.53;4177118;28;20052;-69
2022/08/10 05:20:53;;;;;;;12.13;7.75;;;;;;;21.67;60.00;94856.09;4176293;28;20060;-69
2022/08/10 05:22:55;;;;;;;10.48;7.97;;;;;;;21.57;60.64;94852.34;4175518;28;20468;-67
2022/08/10 05:24:57;;;;;;;10.23;8.27;;;;;;;21.69;60.69;94850.56;4170573;28;20046;-68
2022/08/10 05:26:59;;;;;;;9.13;7.80;;;;;;;21.69;61.00;94847.91;4163104;28;20069;-69
2022/08/10 05:29:11;;;;;;;11.50;8.27;;;;;;;21.31;62.06;94864.09;4163584;28;20061;-69
2022/08/10 05:31:13;;;;;;;8.98;7.82;;;;;;;21.45;61.95;94850.44;4172500;28;20088;-67
2022/08/10 05:33:24;;;;;;;11.73;8.80;;;;;;;21.46;62.28;94851.25;4161619;28;20049;-69
2022/08/10 05:35:28;;;;;;;10.52;9.25;;;;;;;21.57;61.87;94858.47;4162025;28;20131;-69
2022/08/10 05:37:51;;;;;;;12.20;8.93;;;;;;;21.50;62.66;94852.44;4161460;28;20068;-70
2022/08/10 05:40:13;;;;;;;12.25;9.48;;;;;;;21.62;62.47;94855.97;4168135;28;20041;-68
2022/08/10 05:42:16;;;;;;;16.00;10.43;;;;;;;21.55;62.58;94849.09;4158156;28;20565;-69
2022/08/10 05:44:22;;;;;;;12.25;10.07;;;;;;;21.43;63.53;94851.69;4157404;28;20057;-68
2022/08/10 05:46:25;;;;;;;16.65;10.65;;;;;;;21.42;63.79;94850.06;4147982;28;20053;-69
2022/08/10 05:48:27;;;;;;;15.07;10.40;;;;;;;21.60;63.62;94846.59;4168092;28;20057;-69
2022/08/10 05:50:49;;;;;;;10.60;9.57;;;;;;;21.97;62.32;94852.66;4158674;28;20061;-69
2022/08/10 05:52:51;;;;;;;11.25;10.00;;;;;;;22.25;61.36;94853.94;4159794;28;20053;-70
2022/08/10 05:54:53;;;;;;;14.65;10.00;;;;;;;22.43;60.56;94850.38;4168143;28;20142;-69
2022/08/10 05:56:54;;;;;;;13.77;9.65;;;;;;;22.74;59.52;94851.13;4164355;28;20283;-68
2022/08/10 05:58:59;;;;;;;14.05;10.02;;;;;;;22.66;58.90;94852.28;4143195;28;20474;-69
2022/08/10 06:01:04;;;;;;;16.42;12.23;;;;;;;22.46;60.12;94850.75;4150625;28;20049;-69
2022/08/10 06:03:07;;;;;;;16.15;10.00;;;;;;;22.74;59.48;94859.16;4138925;28;20052;-68
2022/08/10 06:05:15;;;;;;;12.68;10.85;;;;;;;22.80;58.92;94858.19;4145330;28;20053;-68
2022/08/10 06:07:18;;;;;;;14.48;10.38;;;;;;;22.82;58.96;94853.44;4142008;28;20057;-68
2022/08/10 06:09:23;;;;;;;11.77;10.60;;;;;;;22.87;59.01;94856.25;4166357;28;20341;-68
2022/08/10 06:11:26;;;;;;;13.70;10.23;;;;;;;22.96;58.42;94859.38;4142916;28;20295;-68
2022/08/10 06:16:18;;;;;;;14.25;10.80;;;;;;;23.13;57.98;94854.19;4164191;28;20045;-70
2022/08/10 06:18:22;;;;;;;18.08;11.80;;;;;;;22.77;59.47;94859.47;4147787;28;20196;-69
2022/08/10 06:20:24;;;;;;;14.43;11.35;;;;;;;22.72;60.17;94859.38;4169085;28;20060;-70
2022/08/10 06:22:31;;;;;;;16.40;12.57;;;;;;;22.98;59.16;94852.75;4154717;28;20049;-68
2022/08/10 06:24:39;;;;;;;14.65;11.88;;;;;;;22.78;59.37;94849.59;4161672;28;20475;-69
2022/08/10 06:27:01;;;;;;;19.13;11.30;;;;;;;22.64;59.53;94859.69;4161558;28;20523;-69
2022/08/10 06:29:10;;;;;;;21.38;11.88;;;;;;;22.48;59.96;94853.19;4174028;28;20110;-68
2022/08/10 06:31:12;;;;;;;14.38;12.23;;;;;;;22.60;60.29;94859.34;4154401;28;20085;-68
2022/08/10 06:33:16;;;;;;;13.18;11.68;;;;;;;22.83;58.94;94866.56;4159559;28;20119;-69
2022/08/10 06:35:18;;;;;;;;;;;;;;;23.15;58.03;94871.59;4144236;28;20061;-70
2022/08/10 06:37:24;;;;;;;13.60;10.90;;;;;;;23.36;57.02;94867.53;4160702;28;19925;-68
2022/08/10 06:39:27;;;;;;;14.73;11.75;;;;;;;22.96;58.44;94867.41;4158039;28;20065;-69
2022/08/10 06:41:44;;;;;;;13.80;12.27;;;;;;;22.87;58.77;94874.94;4167217;28;20118;-69
2022/08/10 06:44:08;;;;;;;14.48;11.45;;;;;;;22.46;60.48;94877.44;4160899;28;20451;-69
2022/08/10 06:46:15;;;;;;;18.52;11.98;;;;;;;22.82;59.89;94864.13;4157814;28;20049;-68
2022/08/10 06:48:31;;;;;;;17.00;12.10;;;;;;;22.85;59.74;94859.16;4157731;28;20107;-68
2022/08/10 06:50:41;;;;;;;14.85;12.13;;;;;;;23.19;58.23;94861.25;4158285;28;20053;-70
2022/08/10 06:53:01;;;;;;;15.55;11.27;;;;;;;23.58;56.93;94864.25;4147886;28;20051;-70
2022/08/10 06:55:04;;;;;;;13.63;11.77;;;;;;;23.84;56.34;94857.56;4168636;28;20049;-69
2022/08/10 06:57:10;;;;;;;13.80;12.40;;;;;;;24.06;55.38;94852.34;4157315;28;20112;-68
2022/08/10 06:59:26;;;;;;;13.10;11.80;;;;;;;24.33;55.15;94863.28;4142834;28;20268;-68
2022/08/10 07:01:32;;;;;;;14.20;11.10;;;;;;;24.47;53.80;94867.25;4171863;28;20051;-70
2022/08/10 07:03:42;;;;;;;14.88;11.48;;;;;;;24.52;53.42;94862.03;4156490;28;20050;-70
2022/08/10 07:05:46;;;;;;;12.88;10.77;;;;;;;24.27;53.52;94864.25;4175362;28;20060;-71
2022/08/10 07:07:55;;;;;;;15.55;10.85;;;;;;;24.18;53.63;94854.97;4157891;28;20497;-69
2022/08/10 07:10:00;;;;;;;14.63;10.02;;;;;;;24.44;52.30;94867.75;4142017;28;20061;-69
2022/08/10 07:12:04;;;;;;;12.77;11.45;;;;;;;24.64;52.04;94858.47;4159357;28;20057;-69
2022/08/10 07:14:13;;;;;;;16.45;10.57;;;;;;;24.14;52.63;94853.84;4159511;28;20457;-70
2022/08/10 07:16:19;;;;;;;13.48;12.15;;;;;;;24.07;53.96;94860.16;4156396;28;20076;-69
2022/08/10 07:18:23;;;;;;;13.88;12.07;;;;;;;24.17;53.52;94856.03;4157771;28;20089;-69
2022/08/10 07:20:27;;;;;;;13.63;10.93;;;;;;;24.33;52.72;94847.22;4166582;28;20148;-68
2022/08/10 07:22:30;;;;;;;13.77;10.00;;;;;;;24.59;51.15;94858.41;4170636;28;20464;-68
2022/08/10 07:24:54;;;;;;;14.95;11.25;;;;;;;24.89;51.54;94845.47;4148640;28;20052;-68
2022/08/10 07:26:57;;;;;;;15.35;12.55;;;;;;;24.74;51.96;94855.97;4158068;28;20144;-70
2022/08/10 07:28:59;;;;;;;12.50;10.67;;;;;;;24.95;51.07;94849.03;4157548;28;20057;-68
2022/08/10 07:31:02;;;;;;;14.45;10.55;;;;;;;25.02;50.59;94849.69;4173787;28;20287;-69
2022/08/10 07:33:23;;;;;;;10.82;9.30;;;;;;;25.30;48.94;94850.66;4160485;28;20055;-67
2022/08/10 07:35:26;;;;;;;12.07;9.88;;;;;;;25.35;49.24;94856.06;4157375;28;20144;-68
2022/08/10 07:37:37;;;;;;;13.13;11.15;;;;;;;25.12;50.61;94854.38;4142333;28;20113;-71
2022/08/10 07:39:43;;;;;;;12.18;10.20;;;;;;;25.31;49.72;94847.72;4174542;28;20053;-69
2022/08/10 07:42:07;;;;;;;12.45;9.38;;;;;;;25.60;49.09;94839.50;4173912;28;20041;-69
2022/08/10 07:44:11;;;;;;;11.57;10.40;;;;;;;25.65;48.85;94846.81;4171232;28;20435;-70
2022/08/10 07:46:14;;;;;;;12.27;10.98;;;;;;;25.84;48.66;94844.63;4157188;28;20045;-70
2022/08/10 07:48:24;;;;;;;15.15;10.80;;;;;;;25.94;48.02;94839.38;4150328;28;20042;-70
2022/08/10 07:50:26;;;;;;;10.95;9.70;;;;;;;25.96;47.87;94837.25;4159701;28;20075;-71
2022/08/10 07:52:34;;;;;;;11.98;9.40;;;;;;;25.42;48.98;94839.81;4141556;28;20049;-68
2022/08/10 07:54:41;;;;;;;16.45;12.30;;;;;;;24.70;50.47;94841.44;4147165;28;20057;-70
2022/08/10 07:56:47;;;;;;;11.20;9.80;;;;;;;24.85;49.47;94844.34;4157306;28;20049;-69
2022/08/10 07:58:55;;;;;;;9.57;8.60;;;;;;;24.62;49.72;94839.16;4174774;28;20136;-69
2022/08/10 08:00:57;;;;;;;11.60;9.30;;;;;;;24.60;49.69;94841.25;4155744;28;20420;-69
2022/08/10 08:03:01;;;;;;;12.25;8.68;;;;;;;24.34;50.02;94846.16;4175152;28;20484;-71
2022/08/10 08:05:08;;;;;;;10.60;8.40;;;;;;;24.65;49.75;94834.13;4154764;28;20057;-70
2022/08/10 08:07:11;;;;;;;12.40;9.20;;;;;;;25.01;48.94;94839.22;4146905;28;20176;-69
2022/08/10 08:09:14;;;;;;;12.13;9.10;;;;;;;25.41;47.93;94838.19;4157552;28;20060;-69
2022/08/10 08:11:18;;;;;;;11.63;8.27;;;;;;;25.63;46.74;94838.19;4173753;28;20061;-70
2022/08/10 08:13:27;;;;;;;7.97;7.07;;;;;;;25.84;45.45;94823.97;4175286;28;20079;-69
2022/08/10 08:15:30;;;;;;;11.13;7.90;;;;;;;25.90;45.25;94822.97;4157011;28;20053;-69
2022/08/10 08:17:52;;;;;;;11.13;8.18;;;;;;;25.50;46.58;94829.44;4173322;28;20056;-72
2022/08/10 08:20:02;;;;;;;9.82;7.53;;;;;;;25.71;46.16;94821.66;4147954;28;20402;-69
2022/08/10 08:22:05;;;;;;;8.15;7.25;;;;;;;26.03;45.08;94821.78;4165471;28;20079;-69
2022/08/10 08:24:27;;;;;;;9.68;7.70;;;;;;;26.42;44.68;94824.28;4148589;28;20052;-70
2022/08/10 08:26:33;;;;;;;10.93;7.53;;;;;;;26.67;43.94;94822.91;4160032;28;20077;-70
2022/08/10 08:28:35;;;;;;;10.93;8.20;;;;;;;26.49;44.20;94822.19;4163843;28;20057;-68
2022/08/10 08:30:38;;;;;;;8.45;7.50;;;;;;;26.54;44.34;94827.63;4164116;28;20080;-69
2022/08/10 08:33:12;;;;;;;10.75;7.47;;;;;;;26.36;44.47;94823.44;4159796;28;20100;-70
2022/08/10 08:35:34;;;;;;;8.30;7.10;;;;;;;26.29;44.35;94822.84;4164434;28;20057;-69
2022/08/10 08:37:37;;;;;;;6.82;6.22;;;;;;;26.04;44.40;94807.28;4173690;28;20052;-71
2022/08/10 08:40:01;;;;;;;8.18;6.40;;;;;;;26.35;43.74;94823.69;4163497;28;20397;-70
2022/08/10 08:42:04;;;;;;;;;;;;;;;26.62;42.64;94820.19;4166107;28;20068;-69
2022/08/10 08:44:13;;;;;;;6.32;5.70;;;;;;;27.00;42.05;94818.31;4171074;28;19920;-70
2022/08/10 08:46:32;;;;;;;6.55;5.32;;;;;;;26.91;41.35;94813.41;4166124;28;20057;-70
2022/08/10 08:49:15;;;;;;;7.90;5.55;;;;;;;26.75;41.57;94814.38;4160031;28;20076;-68
2022/08/10 08:52:01;;;;;;;8.45;6.88;;;;;;;26.25;43.25;94818.22;4162114;28;20468;-69
2022/08/10 08:54:31;;;;;;;7.90;6.03;;;;;;;26.45;43.19;94809.53;4150393;28;20046;-69
2022/08/10 08:56:58;;;;;;;8.23;5.82;;;;;;;26.86;42.01;94810.69;4177671;28;20061;-69
2022/08/10 08:59:34;;;;;;;8.45;6.10;;;;;;;27.23;41.53;94806.38;4159713;28;20061;-68
2022/08/10 09:02:00;;;;;;;12.98;6.78;;;;;;;27.44;41.80;94808.09;4132854;28;20063;-70
2022/08/10 09:04:40;;;;;;;9.40;7.32;;;;;;;27.78;41.44;94808.47;4144963;28;20046;-69
2022/08/10 09:07:09;;;;;;;8.60;6.13;;;;;;;27.56;41.71;94811.38;4133667;28;20143;-69
2022/08/10 09:09:49;;;;;;;8.75;6.63;;;;;;;26.80;43.04;94811.72;4169857;28;20053;-68
2022/08/10 09:12:37;;;;;;;8.15;6.90;;;;;;;26.71;43.65;94800.63;4170091;28;20174;-67
2022/08/10 09:14:50;;;;;;;15.20;7.38;;;;;;;26.92;42.44;94796.22;4127790;28;20172;-68
2022/08/10 09:16:58;;;;;;;9.23;6.95;;;;;;;26.90;42.10;94809.09;4176567;28;20136;-69
2022/08/10 09:19:12;;;;;;;10.98;7.60;;;;;;;26.90;42.68;94806.41;4159873;28;20053;-68
2022/08/10 09:21:58;;;;;;;8.88;6.60;;;;;;;26.98;42.34;94794.38;4154555;28;20053;-69
2022/08/10 09:24:35;;;;;;;9.20;6.15;;;;;;;27.24;41.89;94794.56;4174482;28;20057;-69
2022/08/10 09:26:40;;;;;;;8.52;6.50;;;;;;;27.65;40.94;94789.34;4159020;28;20493;-68
2022/08/10 09:28:42;;;;;;;7.32;6.53;;;;;;;27.96;40.66;94784.88;4175980;28;20052;-69
2022/08/10 09:31:05;;;;;;;7.60;5.97;;;;;;;28.35;40.42;94789.78;4175972;28;20140;-69
2022/08/10 09:33:49;;;;;;;9.20;6.30;;;;;;;28.11;40.51;94790.28;4175857;28;20061;-71
2022/08/10 09:36:25;;;;;;;9.98;6.30;;;;;;;28.30;39.87;94787.09;4167658;28;20049;-69
2022/08/10 09:39:08;;;;;;;7.82;6.05;;;;;;;28.29;39.74;94780.09;4173826;28;20110;-69
2022/08/10 09:41:12;;;;;;;7.22;5.63;;;;;;;28.44;39.74;94777.41;4126883;28;20053;-69
2022/08/10 09:43:20;;;;;;;8.10;5.00;;;;;;;27.80;39.30;94783.19;4175306;28;20055;-66
2022/08/10 09:46:05;;;;;;;8.00;5.50;;;;;;;27.68;39.87;94781.53;4170185;28;20050;-70
2022/08/10 09:48:12;;;;;;;9.15;5.32;;;;;;;27.85;39.60;94775.97;4167906;28;20041;-68
2022/08/10 09:50:38;;;;;;;5.55;4.95;;;;;;;27.70;39.38;94779.38;4176918;28;20059;-69
2022/08/10 09:53:21;;;;;;;7.15;4.43;;;;;;;27.58;38.94;94784.22;4161382;28;20149;-71
2022/08/10 09:55:35;;;;;;;6.40;4.35;;;;;;;27.43;39.34;94776.09;4157469;28;20088;-69
2022/08/10 09:58:34;;;;;;;4.80;4.20;;;;;;;27.30;39.66;94770.09;4152775;28;20232;-69
2022/08/10 10:00:46;;;;;;;4.45;4.05;;;;;;;27.27;39.65;94773.31;4174839;28;20089;-69
2022/08/10 10:03:10;;;;;;;5.57;3.80;;;;;;;27.10;40.19;94773.47;4158468;28;20123;-69
2022/08/10 10:05:23;;;;;;;5.60;3.83;;;;;;;27.26;39.62;94778.97;4158911;28;20045;-69
2022/08/10 10:07:26;;;;;;;4.72;3.88;;;;;;;27.43;39.63;94778.78;4167382;28;20053;-68
2022/08/10 10:09:36;;;;;;;4.00;3.53;;;;;;;27.54;39.22;94772.34;4142607;28;20112;-69
2022/08/10 10:11:52;;;;;;;4.35;3.40;;;;;;;27.46;38.81;94784.41;4162628;28;20117;-69
2022/08/10 10:14:21;;;;;;;6.60;3.45;;;;;;;27.48;39.12;94779.59;4150777;28;20065;-68